Time;durP1;ratioP1;P1;durP2;ratioP2;P2;SDS_P1;SDS_P2;PMS_P1;PMS_P2;Temp;Humidity;BMP_temperature;BMP_pressure;BME280_temperature;BME280_humidity;BME280_pressure;Samples;Min_cycle;Max_cycle;Signal;HPM_P1;HPM_P2
2024/01/29 00:01:59;;;;;;;0.30;0.30;;;;;;;;;;6200492;28;20101;-88
2024/01/29 00:05:02;;;;;;;0.30;0.30;;;;;;;;;;6190206;28;20057;-90
2024/01/29 00:08:04;;;;;;;0.30;0.30;;;;;;;;;;6219391;28;20372;-89
2024/01/29 00:11:05;;;;;;;0.40;0.40;;;;;;;;;;6181955;28;20033;-89
2024/01/29 00:14:05;;;;;;;0.30;0.30;;;;;;;;;;6221390;28;20037;-88
2024/01/29 00:17:07;;;;;;;0.30;0.30;;;;;;;;;;6222371;28;20034;-88
2024/01/29 00:20:07;;;;;;;0.30;0.30;;;;;;;;;;6224131;28;20025;-88
2024/01/29 00:23:08;;;;;;;0.40;0.40;;;;;;;;;;6225916;28;20079;-89
2024/01/29 00:26:08;;;;;;;0.30;0.30;;;;;;;;;;6231404;28;20614;-88
2024/01/29 00:29:09;;;;;;;0.30;0.30;;;;;;;;;;6235015;28;20021;-89
2024/01/29 00:32:13;;;;;;;0.30;0.30;;;;;;;;;;6242870;28;20022;-89
2024/01/29 00:35:19;;;;;;;0.30;0.30;;;;;;;;;;6222418;28;20041;-89
2024/01/29 00:38:20;;;;;;;0.30;0.30;;;;;;;;;;6199712;28;20025;-85
2024/01/29 00:41:20;;;;;;;0.30;0.30;;;;;;;;;;6199989;28;20037;-83
2024/01/29 00:44:21;;;;;;;0.30;0.30;;;;;;;;;;6217595;28;20030;-82
2024/01/29 00:47:22;;;;;;;0.30;0.30;;;;;;;;;;6218587;28;20050;-83
2024/01/29 00:50:22;;;;;;;0.30;0.30;;;;;;;;;;6217452;28;20021;-82
2024/01/29 00:53:23;;;;;;;0.30;0.30;;;;;;;;;;6217818;28;20049;-82
2024/01/29 00:56:23;;;;;;;0.30;0.30;;;;;;;;;;6218369;28;20036;-82
2024/01/29 00:59:23;;;;;;;0.30;0.30;;;;;;;;;;6218223;28;20029;-82
2024/01/29 01:02:23;;;;;;;0.30;0.30;;;;;;;;;;6217398;28;20025;-82
2024/01/29 01:05:24;;;;;;;0.30;0.30;;;;;;;;;;6218315;28;20076;-84
2024/01/29 01:08:24;;;;;;;0.30;0.30;;;;;;;;;;6218374;28;20462;-84
2024/01/29 01:11:24;;;;;;;0.37;0.37;;;;;;;;;;6217268;28;20021;-83
2024/01/29 01:14:25;;;;;;;0.30;0.30;;;;;;;;;;6217433;28;20112;-82
2024/01/29 01:17:28;;;;;;;0.30;0.30;;;;;;;;;;6217832;28;20024;-83
2024/01/29 01:20:29;;;;;;;0.30;0.30;;;;;;;;;;6218293;28;20014;-82
2024/01/29 01:23:29;;;;;;;0.30;0.30;;;;;;;;;;6199772;28;20545;-82
2024/01/29 01:26:31;;;;;;;0.30;0.30;;;;;;;;;;6217378;28;20108;-82
2024/01/29 01:29:32;;;;;;;0.30;0.30;;;;;;;;;;6222514;28;20447;-82
2024/01/29 01:32:32;;;;;;;0.30;0.30;;;;;;;;;;6221613;28;20033;-82
2024/01/29 01:35:32;;;;;;;0.30;0.30;;;;;;;;;;6221779;28;20088;-80
2024/01/29 01:38:32;;;;;;;0.30;0.30;;;;;;;;;;6221823;28;20033;-80
2024/01/29 01:41:32;;;;;;;0.30;0.30;;;;;;;;;;6221340;28;20029;-80
2024/01/29 01:44:33;;;;;;;0.30;0.30;;;;;;;;;;6221861;28;20025;-80
2024/01/29 01:47:33;;;;;;;0.30;0.30;;;;;;;;;;6222373;28;20121;-81
2024/01/29 01:50:33;;;;;;;0.30;0.30;;;;;;;;;;6204679;28;20026;-80
2024/01/29 01:53:34;;;;;;;0.30;0.30;;;;;;;;;;6221744;28;20391;-80
2024/01/29 01:56:36;;;;;;;0.30;0.30;;;;;;;;;;6221725;28;20022;-80
2024/01/29 01:59:38;;;;;;;0.30;0.30;;;;;;;;;;6190436;28;20121;-80
2024/01/29 02:02:38;;;;;;;0.30;0.30;;;;;;;;;;6203044;28;20014;-80
2024/01/29 02:05:38;;;;;;;0.30;0.30;;;;;;;;;;6221264;28;20052;-80
2024/01/29 02:08:39;;;;;;;0.30;0.30;;;;;;;;;;6219888;28;20030;-79
2024/01/29 02:11:40;;;;;;;0.30;0.30;;;;;;;;;;6221326;28;20017;-81
2024/01/29 02:14:40;;;;;;;0.30;0.30;;;;;;;;;;6203173;28;20470;-80
2024/01/29 02:17:40;;;;;;;0.30;0.30;;;;;;;;;;6203245;28;20477;-80
2024/01/29 02:20:41;;;;;;;0.30;0.30;;;;;;;;;;6221209;28;20607;-81
2024/01/29 02:23:47;;;;;;;0.30;0.30;;;;;;;;;;6220909;28;20028;-81
2024/01/29 02:26:47;;;;;;;0.30;0.30;;;;;;;;;;6220787;28;20018;-79
2024/01/29 02:29:49;;;;;;;0.30;0.30;;;;;;;;;;6220608;28;20473;-80
2024/01/29 02:32:49;;;;;;;0.30;0.30;;;;;;;;;;6202690;28;20032;-80
2024/01/29 02:35:49;;;;;;;0.30;0.30;;;;;;;;;;6201469;28;20053;-82
2024/01/29 02:38:50;;;;;;;0.30;0.30;;;;;;;;;;6217281;28;20126;-83
2024/01/29 02:41:50;;;;;;;0.30;0.30;;;;;;;;;;6220553;28;20056;-82
2024/01/29 02:44:50;;;;;;;0.30;0.30;;;;;;;;;;6220017;28;20025;-82
2024/01/29 02:47:50;;;;;;;0.30;0.30;;;;;;;;;;6220208;28;20022;-83
2024/01/29 02:50:50;;;;;;;0.30;0.30;;;;;;;;;;6220865;28;20066;-83
2024/01/29 02:53:51;;;;;;;0.30;0.30;;;;;;;;;;6220713;28;20476;-83
2024/01/29 02:56:51;;;;;;;0.30;0.30;;;;;;;;;;6219674;28;20034;-83
2024/01/29 02:59:52;;;;;;;0.30;0.30;;;;;;;;;;6220319;28;20033;-84
2024/01/29 03:02:52;;;;;;;0.30;0.30;;;;;;;;;;6219965;28;20038;-84
2024/01/29 03:05:53;;;;;;;0.30;0.30;;;;;;;;;;6219832;28;20050;-84
2024/01/29 03:08:53;;;;;;;0.30;0.30;;;;;;;;;;6219239;28;20029;-84
2024/01/29 03:11:53;;;;;;;0.30;0.30;;;;;;;;;;6220742;28;20030;-84
2024/01/29 03:14:53;;;;;;;0.40;0.40;;;;;;;;;;6201953;28;20041;-84
2024/01/29 03:17:54;;;;;;;0.30;0.30;;;;;;;;;;6219478;28;20472;-84
2024/01/29 03:20:54;;;;;;;0.40;0.40;;;;;;;;;;6188543;28;20113;-84
2024/01/29 03:23:55;;;;;;;0.30;0.30;;;;;;;;;;6219662;28;20472;-84
2024/01/29 03:26:55;;;;;;;0.30;0.30;;;;;;;;;;6219120;28;20045;-83
2024/01/29 03:29:57;;;;;;;0.30;0.30;;;;;;;;;;6202330;28;20464;-85
2024/01/29 03:32:58;;;;;;;0.40;0.40;;;;;;;;;;6219215;28;20033;-84
2024/01/29 03:36:02;;;;;;;0.40;0.40;;;;;;;;;;6218783;28;20056;-84
2024/01/29 03:39:03;;;;;;;0.40;0.40;;;;;;;;;;6217523;28;20028;-84
2024/01/29 03:42:03;;;;;;;0.40;0.40;;;;;;;;;;6219087;28;20030;-82
2024/01/29 03:45:04;;;;;;;0.30;0.30;;;;;;;;;;6219387;28;20137;-83
2024/01/29 03:48:04;;;;;;;0.40;0.40;;;;;;;;;;6218955;28;20388;-76
2024/01/29 03:51:05;;;;;;;0.30;0.30;;;;;;;;;;6200627;28;20108;-76
2024/01/29 03:54:05;;;;;;;0.30;0.30;;;;;;;;;;6218795;28;20811;-76
2024/01/29 03:57:05;;;;;;;0.40;0.40;;;;;;;;;;6218432;28;20037;-84
2024/01/29 04:00:06;;;;;;;0.30;0.30;;;;;;;;;;6219181;28;20029;-84
2024/01/29 04:03:07;;;;;;;0.30;0.30;;;;;;;;;;6218101;28;20108;-84
2024/01/29 04:06:07;;;;;;;0.30;0.30;;;;;;;;;;6200618;28;20032;-84
2024/01/29 04:09:09;;;;;;;0.30;0.30;;;;;;;;;;6218552;28;20092;-84
2024/01/29 04:12:09;;;;;;;0.30;0.30;;;;;;;;;;6218757;28;20034;-84
2024/01/29 04:15:11;;;;;;;0.40;0.40;;;;;;;;;;6191101;28;20499;-84
2024/01/29 04:18:11;;;;;;;0.40;0.40;;;;;;;;;;6184440;28;20030;-85
2024/01/29 04:21:11;;;;;;;0.30;0.30;;;;;;;;;;6219316;28;20102;-85
2024/01/29 04:24:12;;;;;;;0.40;0.40;;;;;;;;;;6210753;28;20060;-85
2024/01/29 04:27:12;;;;;;;0.30;0.30;;;;;;;;;;6223360;28;20115;-84
2024/01/29 04:30:12;;;;;;;0.40;0.40;;;;;;;;;;6224699;28;20488;-85
2024/01/29 04:33:13;;;;;;;0.30;0.30;;;;;;;;;;6226716;28;20125;-86
2024/01/29 04:36:16;;;;;;;0.40;0.40;;;;;;;;;;6229061;28;20081;-86
2024/01/29 04:39:16;;;;;;;0.40;0.40;;;;;;;;;;6212828;28;20026;-86
2024/01/29 04:42:17;;;;;;;0.30;0.30;;;;;;;;;;6214771;28;20014;-86
2024/01/29 04:45:18;;;;;;;0.30;0.30;;;;;;;;;;6234065;28;20193;-86
2024/01/29 04:48:18;;;;;;;0.40;0.40;;;;;;;;;;6211282;28;20025;-86
2024/01/29 04:51:19;;;;;;;0.40;0.40;;;;;;;;;;6231670;28;20052;-86
2024/01/29 04:54:20;;;;;;;0.30;0.30;;;;;;;;;;6220952;28;20033;-85
2024/01/29 04:57:22;;;;;;;0.40;0.40;;;;;;;;;;6238094;28;20014;-86
2024/01/29 05:00:22;;;;;;;0.50;0.50;;;;;;;;;;6240733;28;20018;-85
2024/01/29 05:03:22;;;;;;;0.40;0.40;;;;;;;;;;6218694;28;20052;-86
2024/01/29 05:06:23;;;;;;;0.40;0.40;;;;;;;;;;6239812;28;20025;-87
2024/01/29 05:09:23;;;;;;;0.30;0.30;;;;;;;;;;6207479;28;20014;-86
2024/01/29 05:12:23;;;;;;;0.40;0.40;;;;;;;;;;6226043;28;20388;-86
2024/01/29 05:15:24;;;;;;;0.37;0.37;;;;;;;;;;6238581;28;20088;-86
2024/01/29 05:18:24;;;;;;;0.33;0.33;;;;;;;;;;6222903;28;20472;-76
2024/01/29 05:21:28;;;;;;;0.38;0.38;;;;;;;;;;6222019;28;20022;-77
2024/01/29 05:24:28;;;;;;;0.40;0.40;;;;;;;;;;6215784;28;20033;-77
2024/01/29 05:27:28;;;;;;;0.40;0.40;;;;;;;;;;6231569;28;20029;-86
2024/01/29 05:30:29;;;;;;;0.37;0.37;;;;;;;;;;6241716;28;20037;-85
2024/01/29 05:33:29;;;;;;;0.33;0.33;;;;;;;;;;6238129;28;20101;-85
2024/01/29 05:36:29;;;;;;;0.30;0.30;;;;;;;;;;6221044;28;20049;-85
2024/01/29 05:39:29;;;;;;;0.47;0.47;;;;;;;;;;6236506;28;20021;-84
2024/01/29 05:42:31;;;;;;;0.40;0.40;;;;;;;;;;6241692;28;20060;-85
2024/01/29 05:45:32;;;;;;;0.40;0.40;;;;;;;;;;6244336;28;20014;-86
2024/01/29 05:48:32;;;;;;;0.30;0.30;;;;;;;;;;6245719;28;20064;-85
2024/01/29 05:51:32;;;;;;;0.30;0.30;;;;;;;;;;6215306;28;20436;-84
2024/01/29 05:54:32;;;;;;;0.40;0.40;;;;;;;;;;6217064;28;20061;-85
2024/01/29 05:57:36;;;;;;;0.40;0.40;;;;;;;;;;6240169;28;20028;-85
2024/01/29 06:00:36;;;;;;;0.40;0.40;;;;;;;;;;6232772;28;20358;-86
2024/01/29 06:03:36;;;;;;;0.33;0.33;;;;;;;;;;6218402;28;20084;-86
2024/01/29 06:06:37;;;;;;;0.30;0.30;;;;;;;;;;6207196;28;20177;-86
2024/01/29 06:09:37;;;;;;;0.40;0.40;;;;;;;;;;6206789;28;20022;-85
2024/01/29 06:12:37;;;;;;;0.30;0.30;;;;;;;;;;6233551;28;20746;-85
2024/01/29 06:15:38;;;;;;;0.40;0.40;;;;;;;;;;6214774;28;20022;-86
2024/01/29 06:18:38;;;;;;;0.30;0.30;;;;;;;;;;6224924;28;20087;-85
2024/01/29 06:21:40;;;;;;;0.30;0.30;;;;;;;;;;6236681;28;20014;-84
2024/01/29 06:24:40;;;;;;;0.40;0.40;;;;;;;;;;6230957;28;20090;-85
2024/01/29 06:27:40;;;;;;;0.30;0.30;;;;;;;;;;6217410;28;20010;-84
2024/01/29 06:30:41;;;;;;;0.30;0.30;;;;;;;;;;6229236;28;20018;-84
2024/01/29 06:33:41;;;;;;;0.40;0.40;;;;;;;;;;6235553;28;20018;-84
2024/01/29 06:36:41;;;;;;;0.30;0.30;;;;;;;;;;6206896;28;20088;-76
2024/01/29 06:39:41;;;;;;;0.40;0.40;;;;;;;;;;6220347;28;20030;-76
2024/01/29 06:42:42;;;;;;;0.30;0.30;;;;;;;;;;6216084;28;20029;-76
2024/01/29 06:45:42;;;;;;;0.40;0.40;;;;;;;;;;6221050;28;20527;-85
2024/01/29 06:48:42;;;;;;;0.30;0.30;;;;;;;;;;6219926;28;20104;-77
2024/01/29 06:51:42;;;;;;;0.30;0.30;;;;;;;;;;6220375;28;20013;-75
2024/01/29 06:54:43;;;;;;;0.30;0.30;;;;;;;;;;6202539;28;20017;-76
2024/01/29 06:57:43;;;;;;;0.30;0.30;;;;;;;;;;6222037;28;20021;-84
2024/01/29 07:00:43;;;;;;;0.30;0.30;;;;;;;;;;6224709;28;20018;-84
2024/01/29 07:03:43;;;;;;;0.30;0.30;;;;;;;;;;6225473;28;20049;-86
2024/01/29 07:06:44;;;;;;;0.30;0.30;;;;;;;;;;6224589;28;20022;-76
2024/01/29 07:09:44;;;;;;;0.30;0.30;;;;;;;;;;6215620;28;20414;-76
2024/01/29 07:12:45;;;;;;;0.30;0.30;;;;;;;;;;6217610;28;20032;-75
2024/01/29 07:15:45;;;;;;;0.23;0.23;;;;;;;;;;6219166;28;20048;-75
2024/01/29 07:18:46;;;;;;;0.30;0.30;;;;;;;;;;6217987;28;20080;-75
2024/01/29 07:21:46;;;;;;;0.20;0.20;;;;;;;;;;6198291;28;20504;-75
2024/01/29 07:24:48;;;;;;;0.20;0.20;;;;;;;;;;6216036;28;20145;-77
2024/01/29 07:27:48;;;;;;;0.30;0.30;;;;;;;;;;6216341;28;20022;-78
2024/01/29 07:30:49;;;;;;;0.20;0.20;;;;;;;;;;6200648;28;20109;-81
2024/01/29 07:33:50;;;;;;;0.20;0.20;;;;;;;;;;6195785;28;20037;-83
2024/01/29 07:36:50;;;;;;;0.20;0.20;;;;;;;;;;6214313;28;20115;-84
2024/01/29 07:39:51;;;;;;;0.20;0.20;;;;;;;;;;6214921;28;20022;-85
2024/01/29 07:42:51;;;;;;;0.20;0.20;;;;;;;;;;6210109;28;20029;-86
2024/01/29 07:45:51;;;;;;;0.20;0.20;;;;;;;;;;6203999;28;20030;-80
2024/01/29 07:48:52;;;;;;;0.10;0.10;;;;;;;;;;6205787;28;20431;-79
2024/01/29 07:51:53;;;;;;;0.20;0.20;;;;;;;;;;6217633;28;20030;-77
2024/01/29 07:54:53;;;;;;;0.20;0.20;;;;;;;;;;6217809;28;20060;-76
2024/01/29 07:57:54;;;;;;;0.20;0.20;;;;;;;;;;6216446;28;20026;-76
2024/01/29 08:00:54;;;;;;;0.20;0.20;;;;;;;;;;6217768;28;20041;-77
2024/01/29 08:03:54;;;;;;;0.20;0.20;;;;;;;;;;6217366;28;20041;-77
2024/01/29 08:06:54;;;;;;;0.20;0.20;;;;;;;;;;6194861;28;20022;-76
2024/01/29 08:09:55;;;;;;;0.20;0.20;;;;;;;;;;6216976;28;20030;-77
2024/01/29 08:12:55;;;;;;;0.20;0.20;;;;;;;;;;6217504;28;20029;-76
2024/01/29 08:15:55;;;;;;;0.20;0.20;;;;;;;;;;6217099;28;20389;-78
2024/01/29 08:18:56;;;;;;;0.20;0.20;;;;;;;;;;6199416;28;20143;-78
2024/01/29 08:21:56;;;;;;;0.10;0.10;;;;;;;;;;6216380;28;20510;-78
2024/01/29 08:24:57;;;;;;;0.20;0.20;;;;;;;;;;6196564;28;20025;-77
2024/01/29 08:27:57;;;;;;;0.20;0.20;;;;;;;;;;6204903;28;20029;-77
2024/01/29 08:30:59;;;;;;;0.20;0.20;;;;;;;;;;6216361;28;20080;-77
2024/01/29 08:33:59;;;;;;;0.20;0.20;;;;;;;;;;6217162;28;20026;-78
2024/01/29 08:36:59;;;;;;;0.20;0.20;;;;;;;;;;6212420;28;20038;-78
2024/01/29 08:39:59;;;;;;;0.20;0.20;;;;;;;;;;6197061;28;20025;-77
2024/01/29 08:43:01;;;;;;;0.20;0.20;;;;;;;;;;6216444;28;20113;-77
2024/01/29 08:46:01;;;;;;;0.20;0.20;;;;;;;;;;6200433;28;20387;-78
2024/01/29 08:49:02;;;;;;;0.20;0.20;;;;;;;;;;6216569;28;20025;-78
2024/01/29 08:52:02;;;;;;;0.20;0.20;;;;;;;;;;6217752;28;20503;-78
2024/01/29 08:55:03;;;;;;;0.20;0.20;;;;;;;;;;6216473;28;20142;-76
2024/01/29 08:58:04;;;;;;;0.20;0.20;;;;;;;;;;6217522;28;20511;-83
2024/01/29 09:01:04;;;;;;;0.20;0.20;;;;;;;;;;6216491;28;20510;-81
2024/01/29 09:04:04;;;;;;;0.20;0.20;;;;;;;;;;6199087;28;20049;-81
2024/01/29 09:07:05;;;;;;;0.20;0.20;;;;;;;;;;6217461;28;20076;-77
2024/01/29 09:10:06;;;;;;;0.20;0.20;;;;;;;;;;6223013;28;20104;-77
2024/01/29 09:13:06;;;;;;;0.20;0.20;;;;;;;;;;6214978;28;20033;-76
2024/01/29 09:16:06;;;;;;;0.10;0.10;;;;;;;;;;6217310;28;20841;-77
2024/01/29 09:19:06;;;;;;;0.10;0.10;;;;;;;;;;6217270;28;20097;-77
2024/01/29 09:22:07;;;;;;;0.17;0.17;;;;;;;;;;6214805;28;20025;-77
2024/01/29 09:25:07;;;;;;;0.20;0.20;;;;;;;;;;6216999;28;20097;-78
2024/01/29 09:28:08;;;;;;;0.20;0.20;;;;;;;;;;6212232;28;20025;-78
2024/01/29 09:31:08;;;;;;;0.20;0.20;;;;;;;;;;6212390;28;20049;-78
2024/01/29 09:34:08;;;;;;;0.20;0.20;;;;;;;;;;6216743;28;20151;-78
2024/01/29 09:37:08;;;;;;;0.20;0.20;;;;;;;;;;6199002;28;20040;-79
2024/01/29 09:40:14;;;;;;;0.20;0.20;;;;;;;;;;6216594;28;20056;-78
2024/01/29 09:43:16;;;;;;;0.20;0.20;;;;;;;;;;6217012;28;20076;-78
2024/01/29 09:46:16;;;;;;;0.20;0.20;;;;;;;;;;6217027;28;20033;-78
2024/01/29 09:49:17;;;;;;;0.20;0.20;;;;;;;;;;6202347;28;20022;-78
2024/01/29 09:52:17;;;;;;;0.20;0.20;;;;;;;;;;6220004;28;20101;-77
2024/01/29 09:55:18;;;;;;;0.20;0.20;;;;;;;;;;6216713;28;20548;-77
2024/01/29 09:58:19;;;;;;;0.20;0.20;;;;;;;;;;6221039;28;20527;-77
2024/01/29 10:01:20;;;;;;;0.10;0.10;;;;;;;;;;6220707;28;20021;-77
2024/01/29 10:04:21;;;;;;;0.20;0.20;;;;;;;;;;6218067;28;20121;-77
2024/01/29 10:07:22;;;;;;;0.20;0.20;;;;;;;;;;6222509;28;20021;-77
2024/01/29 10:10:24;;;;;;;0.10;0.10;;;;;;;;;;6221451;28;20014;-77
2024/01/29 10:13:24;;;;;;;0.20;0.20;;;;;;;;;;6220500;28;20022;-77
2024/01/29 10:16:26;;;;;;;0.20;0.20;;;;;;;;;;6220741;28;20064;-77
2024/01/29 10:19:35;;;;;;;0.20;0.20;;;;;;;;;;6215001;28;20022;-77
2024/01/29 10:22:35;;;;;;;0.20;0.20;;;;;;;;;;6214195;28;20084;-77
2024/01/29 10:25:38;;;;;;;0.20;0.20;;;;;;;;;;6220003;28;20022;-77
2024/01/29 10:28:38;;;;;;;0.10;0.10;;;;;;;;;;6220087;28;20021;-77
2024/01/29 10:31:40;;;;;;;0.10;0.10;;;;;;;;;;6219494;28;20037;-77
2024/01/29 10:34:41;;;;;;;0.20;0.20;;;;;;;;;;6218485;28;20611;-77
2024/01/29 10:37:44;;;;;;;0.20;0.20;;;;;;;;;;6219257;28;20026;-78
2024/01/29 10:40:45;;;;;;;0.20;0.20;;;;;;;;;;6217588;28;20029;-78
2024/01/29 10:43:47;;;;;;;0.20;0.20;;;;;;;;;;6199245;28;20473;-78
2024/01/29 10:46:47;;;;;;;;;;;;;;;;;;6219066;28;20101;-80
2024/01/29 10:49:47;;;;;;;0.20;0.20;;;;;;;;;;6208290;28;19913;-79
2024/01/29 10:52:48;;;;;;;0.20;0.20;;;;;;;;;;6217270;28;20052;-79
2024/01/29 10:55:50;;;;;;;0.10;0.10;;;;;;;;;;6218770;28;20014;-78
2024/01/29 10:58:55;;;;;;;0.20;0.20;;;;;;;;;;6189844;28;20770;-78
2024/01/29 11:01:56;;;;;;;0.20;0.20;;;;;;;;;;6200059;28;20461;-78
2024/01/29 11:04:56;;;;;;;0.10;0.10;;;;;;;;;;6216389;28;20856;-78
2024/01/29 11:07:58;;;;;;;0.10;0.10;;;;;;;;;;6218199;28;20026;-78
2024/01/29 11:10:58;;;;;;;;;;;;;;;;;;6215620;28;20022;-77
2024/01/29 11:13:59;;;;;;;0.20;0.20;;;;;;;;;;6218764;28;20397;-78
2024/01/29 11:16:59;;;;;;;0.10;0.10;;;;;;;;;;6213215;28;20166;-78
2024/01/29 11:20:01;;;;;;;0.10;0.10;;;;;;;;;;6219954;28;20268;-78
2024/01/29 11:23:03;;;;;;;0.10;0.10;;;;;;;;;;6212238;28;20400;-78
2024/01/29 11:26:05;;;;;;;0.20;0.20;;;;;;;;;;6219313;28;20041;-78
2024/01/29 11:29:06;;;;;;;0.20;0.20;;;;;;;;;;6215580;28;20029;-78
2024/01/29 11:32:06;;;;;;;0.10;0.10;;;;;;;;;;6216381;28;20030;-78
2024/01/29 11:35:09;;;;;;;0.20;0.20;;;;;;;;;;6218681;28;20061;-78
2024/01/29 11:38:13;;;;;;;0.10;0.10;;;;;;;;;;6217479;28;20101;-78
2024/01/29 11:41:17;;;;;;;0.10;0.10;;;;;;;;;;6210037;28;20017;-78
2024/01/29 11:44:18;;;;;;;0.10;0.10;;;;;;;;;;6213153;28;20068;-77
2024/01/29 11:47:21;;;;;;;0.10;0.10;;;;;;;;;;6198491;28;20688;-78
2024/01/29 11:50:21;;;;;;;0.10;0.10;;;;;;;;;;6218454;28;20026;-78
2024/01/29 11:53:25;;;;;;;0.10;0.10;;;;;;;;;;6218242;28;20033;-78
2024/01/29 11:56:25;;;;;;;0.10;0.10;;;;;;;;;;6218709;28;20240;-78
2024/01/29 11:59:25;;;;;;;0.20;0.20;;;;;;;;;;6218492;28;20076;-78
2024/01/29 12:02:30;;;;;;;0.10;0.10;;;;;;;;;;6218200;28;20045;-78
2024/01/29 12:05:30;;;;;;;0.13;0.13;;;;;;;;;;6218329;28;20044;-78
2024/01/29 12:08:31;;;;;;;0.10;0.10;;;;;;;;;;6217662;28;20018;-79
2024/01/29 12:11:31;;;;;;;0.10;0.10;;;;;;;;;;6213323;28;20072;-78
2024/01/29 12:14:31;;;;;;;0.10;0.10;;;;;;;;;;6217922;28;20097;-77
2024/01/29 12:17:32;;;;;;;0.10;0.10;;;;;;;;;;6217992;28;20036;-77
2024/01/29 12:20:33;;;;;;;0.10;0.10;;;;;;;;;;6217777;28;20014;-77
2024/01/29 12:23:33;;;;;;;0.10;0.10;;;;;;;;;;6217396;28;20030;-77
2024/01/29 12:26:34;;;;;;;0.10;0.10;;;;;;;;;;6215064;28;20021;-77
2024/01/29 12:29:38;;;;;;;0.10;0.10;;;;;;;;;;6214859;28;20080;-77
2024/01/29 12:32:39;;;;;;;0.10;0.10;;;;;;;;;;6195469;28;20032;-77
2024/01/29 12:35:39;;;;;;;0.10;0.10;;;;;;;;;;6213617;28;20029;-78
2024/01/29 12:38:40;;;;;;;0.10;0.10;;;;;;;;;;6208128;28;20025;-78
2024/01/29 12:41:40;;;;;;;0.10;0.10;;;;;;;;;;6215470;28;20022;-79
2024/01/29 12:44:40;;;;;;;0.10;0.10;;;;;;;;;;6216742;28;20075;-78
2024/01/29 12:47:41;;;;;;;0.10;0.10;;;;;;;;;;6216012;28;20026;-78
2024/01/29 12:50:41;;;;;;;0.10;0.10;;;;;;;;;;6214561;28;20022;-78
2024/01/29 12:53:42;;;;;;;0.10;0.10;;;;;;;;;;6212644;28;20029;-78
2024/01/29 12:56:42;;;;;;;0.10;0.10;;;;;;;;;;6215726;28;20152;-78
2024/01/29 12:59:43;;;;;;;0.10;0.10;;;;;;;;;;6211008;28;20034;-79
2024/01/29 13:02:43;;;;;;;0.10;0.10;;;;;;;;;;6213487;28;20464;-77
2024/01/29 13:05:45;;;;;;;0.10;0.10;;;;;;;;;;6189070;28;20098;-78
2024/01/29 13:08:45;;;;;;;0.20;0.20;;;;;;;;;;6192013;28;20025;-77
2024/01/29 13:11:45;;;;;;;0.10;0.10;;;;;;;;;;6192379;28;20034;-78
2024/01/29 13:14:47;;;;;;;0.10;0.10;;;;;;;;;;6193162;28;20073;-78
2024/01/29 13:17:47;;;;;;;0.10;0.10;;;;;;;;;;6198006;28;20083;-81
2024/01/29 13:20:49;;;;;;;0.10;0.10;;;;;;;;;;6195544;28;20018;-81
2024/01/29 13:23:49;;;;;;;;;;;;;;;;;;6191480;28;20034;-80
2024/01/29 13:26:49;;;;;;;0.10;0.10;;;;;;;;;;6196587;28;20076;-81
2024/01/29 13:29:50;;;;;;;0.10;0.10;;;;;;;;;;6197124;28;20076;-80
2024/01/29 13:32:50;;;;;;;0.10;0.10;;;;;;;;;;6197481;28;20026;-81
2024/01/29 13:35:51;;;;;;;0.10;0.10;;;;;;;;;;6197485;28;20104;-81
2024/01/29 13:38:51;;;;;;;0.10;0.10;;;;;;;;;;6192006;28;20038;-81
2024/01/29 13:41:52;;;;;;;0.10;0.10;;;;;;;;;;6195189;28;20497;-79
2024/01/29 13:44:53;;;;;;;0.10;0.10;;;;;;;;;;6196113;28;20053;-80
2024/01/29 13:47:53;;;;;;;0.10;0.10;;;;;;;;;;6197176;28;20101;-80
2024/01/29 13:50:53;;;;;;;0.10;0.10;;;;;;;;;;6197296;28;20469;-80
2024/01/29 13:53:55;;;;;;;;;;;;;;;;;;6195499;28;20085;-80
2024/01/29 13:56:55;;;;;;;0.10;0.10;;;;;;;;;;6196666;28;20426;-80
2024/01/29 13:59:58;;;;;;;0.10;0.10;;;;;;;;;;6194910;28;20109;-80
2024/01/29 14:02:59;;;;;;;0.10;0.10;;;;;;;;;;6195232;28;20544;-79
2024/01/29 14:06:00;;;;;;;0.10;0.10;;;;;;;;;;6218677;28;20073;-79
2024/01/29 14:09:00;;;;;;;0.10;0.10;;;;;;;;;;6219644;28;20439;-80
2024/01/29 14:12:00;;;;;;;0.10;0.10;;;;;;;;;;6220433;28;20021;-79
2024/01/29 14:15:03;;;;;;;0.10;0.10;;;;;;;;;;6219547;28;20018;-79
2024/01/29 14:18:03;;;;;;;0.10;0.10;;;;;;;;;;6202251;28;20032;-76
2024/01/29 14:21:04;;;;;;;0.10;0.10;;;;;;;;;;6219447;28;20393;-76
2024/01/29 14:24:06;;;;;;;0.10;0.10;;;;;;;;;;6219164;28;20092;-75
2024/01/29 14:27:06;;;;;;;;;;;;;;;;;;6220061;28;20477;-77
2024/01/29 14:30:06;;;;;;;0.10;0.10;;;;;;;;;;6218731;28;19909;-77
2024/01/29 14:33:07;;;;;;;0.10;0.10;;;;;;;;;;6200993;28;20026;-77
2024/01/29 14:36:07;;;;;;;0.10;0.10;;;;;;;;;;6208328;28;20018;-78
2024/01/29 14:39:08;;;;;;;0.10;0.10;;;;;;;;;;6208585;28;20073;-77
2024/01/29 14:42:08;;;;;;;0.10;0.10;;;;;;;;;;6212477;28;20018;-77
2024/01/29 14:45:08;;;;;;;0.10;0.10;;;;;;;;;;6220543;28;20040;-77
2024/01/29 14:48:08;;;;;;;0.10;0.10;;;;;;;;;;6219972;28;20101;-77
2024/01/29 14:51:09;;;;;;;0.10;0.10;;;;;;;;;;6220839;28;20028;-77
2024/01/29 14:54:09;;;;;;;0.10;0.10;;;;;;;;;;6208101;28;20025;-77
2024/01/29 14:57:10;;;;;;;0.10;0.10;;;;;;;;;;6202546;28;20424;-77
2024/01/29 15:00:11;;;;;;;0.10;0.10;;;;;;;;;;6219982;28;20021;-77
2024/01/29 15:03:13;;;;;;;0.10;0.10;;;;;;;;;;6219514;28;20041;-77
2024/01/29 15:06:20;;;;;;;0.10;0.10;;;;;;;;;;6219879;28;20037;-76
2024/01/29 15:09:20;;;;;;;0.13;0.13;;;;;;;;;;6216810;28;20109;-77
2024/01/29 15:12:21;;;;;;;0.20;0.20;;;;;;;;;;6217674;28;20041;-76
2024/01/29 15:15:21;;;;;;;0.10;0.10;;;;;;;;;;6200998;28;20018;-77
2024/01/29 15:18:21;;;;;;;0.20;0.20;;;;;;;;;;6218820;28;20018;-75
2024/01/29 15:21:22;;;;;;;0.20;0.20;;;;;;;;;;6199918;28;20029;-77
2024/01/29 15:24:22;;;;;;;0.20;0.20;;;;;;;;;;6199553;28;20117;-77
2024/01/29 15:27:23;;;;;;;0.10;0.10;;;;;;;;;;6200490;28;20022;-77
2024/01/29 15:30:23;;;;;;;0.10;0.10;;;;;;;;;;6214124;28;20022;-77
2024/01/29 15:33:23;;;;;;;0.10;0.10;;;;;;;;;;6200599;28;20400;-77
2024/01/29 15:36:23;;;;;;;0.20;0.20;;;;;;;;;;6217940;28;20373;-80
2024/01/29 15:39:25;;;;;;;0.13;0.13;;;;;;;;;;6200070;28;20087;-80
2024/01/29 15:42:28;;;;;;;0.20;0.20;;;;;;;;;;6217673;28;20064;-80
2024/01/29 15:45:29;;;;;;;0.13;0.13;;;;;;;;;;6218461;28;20018;-80
2024/01/29 15:48:29;;;;;;;0.10;0.10;;;;;;;;;;6217718;28;20022;-80
2024/01/29 15:51:29;;;;;;;0.20;0.20;;;;;;;;;;6217989;28;20029;-80
2024/01/29 15:54:32;;;;;;;0.20;0.20;;;;;;;;;;6217499;28;20018;-80
2024/01/29 15:57:32;;;;;;;0.20;0.20;;;;;;;;;;6217370;28;20396;-80
2024/01/29 16:00:33;;;;;;;0.20;0.20;;;;;;;;;;6217782;28;20053;-81
2024/01/29 16:03:35;;;;;;;0.20;0.20;;;;;;;;;;6216884;28;20412;-81
2024/01/29 16:06:35;;;;;;;0.20;0.20;;;;;;;;;;6205073;28;20014;-80
2024/01/29 16:09:35;;;;;;;0.20;0.20;;;;;;;;;;6199529;28;20060;-80
2024/01/29 16:12:36;;;;;;;0.20;0.20;;;;;;;;;;6217016;28;20014;-80
2024/01/29 16:15:37;;;;;;;0.20;0.20;;;;;;;;;;6217181;28;20036;-80
2024/01/29 16:18:37;;;;;;;0.20;0.20;;;;;;;;;;6217305;28;20026;-79
2024/01/29 16:21:37;;;;;;;0.20;0.20;;;;;;;;;;6217133;28;20391;-78
2024/01/29 16:24:38;;;;;;;0.20;0.20;;;;;;;;;;6217440;28;20018;-78
2024/01/29 16:27:38;;;;;;;0.20;0.20;;;;;;;;;;6216895;28;20025;-78
2024/01/29 16:30:39;;;;;;;0.20;0.20;;;;;;;;;;6217295;28;20627;-79
2024/01/29 16:33:39;;;;;;;0.20;0.20;;;;;;;;;;6216948;28;20025;-78
2024/01/29 16:36:39;;;;;;;0.20;0.20;;;;;;;;;;6217778;28;20034;-78
2024/01/29 16:39:39;;;;;;;0.20;0.20;;;;;;;;;;6217287;28;20025;-78
2024/01/29 16:42:40;;;;;;;0.20;0.20;;;;;;;;;;6197121;28;20060;-78
2024/01/29 16:45:40;;;;;;;0.20;0.20;;;;;;;;;;6217747;28;20480;-76
2024/01/29 16:48:40;;;;;;;0.20;0.20;;;;;;;;;;6216925;28;20476;-76
2024/01/29 16:51:40;;;;;;;0.20;0.20;;;;;;;;;;6195433;28;20029;-76
2024/01/29 16:54:41;;;;;;;0.20;0.20;;;;;;;;;;6214118;28;20128;-76
2024/01/29 16:57:41;;;;;;;0.20;0.20;;;;;;;;;;6215338;28;20017;-76
2024/01/29 17:00:41;;;;;;;0.20;0.20;;;;;;;;;;6212998;28;20536;-77
2024/01/29 17:03:42;;;;;;;0.30;0.30;;;;;;;;;;6215680;28;20136;-76
2024/01/29 17:06:42;;;;;;;0.20;0.20;;;;;;;;;;6198953;28;20096;-76
2024/01/29 17:09:43;;;;;;;0.30;0.30;;;;;;;;;;6195596;28;20065;-77
2024/01/29 17:12:44;;;;;;;0.20;0.20;;;;;;;;;;6215396;28;20022;-76
2024/01/29 17:15:44;;;;;;;0.20;0.20;;;;;;;;;;6212973;28;20033;-75
2024/01/29 17:18:44;;;;;;;0.20;0.20;;;;;;;;;;6216761;28;20029;-75
2024/01/29 17:21:44;;;;;;;0.20;0.20;;;;;;;;;;6213781;28;20057;-74
2024/01/29 17:24:46;;;;;;;0.30;0.30;;;;;;;;;;6215655;28;20896;-76
2024/01/29 17:27:46;;;;;;;0.20;0.20;;;;;;;;;;6216254;28;20025;-76
2024/01/29 17:30:47;;;;;;;0.20;0.20;;;;;;;;;;6216019;28;20101;-75
2024/01/29 17:33:47;;;;;;;0.30;0.30;;;;;;;;;;6216484;28;20026;-75
2024/01/29 17:36:48;;;;;;;0.20;0.20;;;;;;;;;;6215731;28;20017;-76
2024/01/29 17:39:50;;;;;;;0.30;0.30;;;;;;;;;;6216259;28;20029;-75
2024/01/29 17:42:51;;;;;;;0.20;0.20;;;;;;;;;;6207245;28;20044;-75
2024/01/29 17:45:51;;;;;;;0.30;0.30;;;;;;;;;;6216417;28;20464;-76
2024/01/29 17:48:51;;;;;;;0.30;0.30;;;;;;;;;;6215635;28;20032;-76
2024/01/29 17:51:51;;;;;;;0.30;0.30;;;;;;;;;;6215755;28;20022;-76
2024/01/29 17:54:52;;;;;;;0.30;0.30;;;;;;;;;;6215859;28;20487;-76
2024/01/29 17:57:52;;;;;;;0.30;0.30;;;;;;;;;;6215446;28;20028;-76
2024/01/29 18:00:53;;;;;;;0.20;0.20;;;;;;;;;;6215759;28;20601;-76
2024/01/29 18:03:53;;;;;;;0.30;0.30;;;;;;;;;;6216252;28;20133;-76
2024/01/29 18:06:58;;;;;;;0.30;0.30;;;;;;;;;;6216823;28;20057;-76